sensor_id;sensor_type;location;lat;lon;timestamp;temperature;humidity
29713;DHT22;16623;53.632;10.016;2023-08-07T00:00:09;15.40;99.90
29713;DHT22;16623;53.632;10.016;2023-08-07T00:02:35;16.00;99.90
29713;DHT22;16623;53.632;10.016;2023-08-07T00:05:00;15.90;99.90
29713;DHT22;16623;53.632;10.016;2023-08-07T00:07:26;15.90;99.90
29713;DHT22;16623;53.632;10.016;2023-08-07T00:09:51;15.90;99.90
29713;DHT22;16623;53.632;10.016;2023-08-07T00:12:17;15.80;99.90
29713;DHT22;16623;53.632;10.016;2023-08-07T00:14:42;16.00;99.90
29713;DHT22;16623;53.632;10.016;2023-08-07T00:17:08;15.80;99.90
29713;DHT22;16623;53.632;10.016;2023-08-07T00:19:34;15.90;99.90
29713;DHT22;16623;53.632;10.016;2023-08-07T00:21:59;15.90;99.90
29713;DHT22;16623;53.632;10.016;2023-08-07T00:24:25;15.80;99.90
29713;DHT22;16623;53.632;10.016;2023-08-07T00:26:50;15.90;99.90
29713;DHT22;16623;53.632;10.016;2023-08-07T00:29:16;15.80;99.90
29713;DHT22;16623;53.632;10.016;2023-08-07T00:31:41;15.80;99.90
29713;DHT22;16623;53.632;10.016;2023-08-07T00:34:07;15.80;99.90
29713;DHT22;16623;53.632;10.016;2023-08-07T00:36:32;15.80;99.90
29713;DHT22;16623;53.632;10.016;2023-08-07T00:39:01;15.80;99.90
29713;DHT22;16623;53.632;10.016;2023-08-07T00:41:26;15.80;99.90
29713;DHT22;16623;53.632;10.016;2023-08-07T00:43:51;15.70;99.90
29713;DHT22;16623;53.632;10.016;2023-08-07T00:46:17;15.70;99.90
29713;DHT22;16623;53.632;10.016;2023-08-07T00:48:44;15.70;99.90
29713;DHT22;16623;53.632;10.016;2023-08-07T00:51:10;15.70;99.90
29713;DHT22;16623;53.632;10.016;2023-08-07T00:53:37;15.70;99.90
29713;DHT22;16623;53.632;10.016;2023-08-07T00:56:03;15.70;99.90
29713;DHT22;16623;53.632;10.016;2023-08-07T00:58:29;15.60;99.90
29713;DHT22;16623;53.632;10.016;2023-08-07T01:00:55;15.70;99.90
29713;DHT22;16623;53.632;10.016;2023-08-07T01:03:20;15.60;99.90
29713;DHT22;16623;53.632;10.016;2023-08-07T01:05:46;15.70;99.90
29713;DHT22;16623;53.632;10.016;2023-08-07T01:08:11;15.70;99.90
29713;DHT22;16623;53.632;10.016;2023-08-07T01:16:40;15.50;99.90
29713;DHT22;16623;53.632;10.016;2023-08-07T01:19:17;15.50;99.90
29713;DHT22;16623;53.632;10.016;2023-08-07T01:21:48;15.50;99.90
29713;DHT22;16623;53.632;10.016;2023-08-07T01:24:13;15.60;99.90
29713;DHT22;16623;53.632;10.016;2023-08-07T01:26:40;15.60;99.90
29713;DHT22;16623;53.632;10.016;2023-08-07T01:29:22;15.50;99.90
29713;DHT22;16623;53.632;10.016;2023-08-07T01:31:53;15.50;99.90
29713;DHT22;16623;53.632;10.016;2023-08-07T01:34:21;15.50;99.90
29713;DHT22;16623;53.632;10.016;2023-08-07T01:36:50;15.50;99.90
29713;DHT22;16623;53.632;10.016;2023-08-07T01:39:18;15.50;99.90
29713;DHT22;16623;53.632;10.016;2023-08-07T01:41:44;15.50;99.90
29713;DHT22;16623;53.632;10.016;2023-08-07T01:44:10;15.50;99.90
29713;DHT22;16623;53.632;10.016;2023-08-07T01:46:36;15.50;99.90
29713;DHT22;16623;53.632;10.016;2023-08-07T01:49:04;15.40;99.90
29713;DHT22;16623;53.632;10.016;2023-08-07T01:51:30;15.40;99.90
29713;DHT22;16623;53.632;10.016;2023-08-07T01:53:56;15.50;99.90
29713;DHT22;16623;53.632;10.016;2023-08-07T01:56:21;15.40;99.90
29713;DHT22;16623;53.632;10.016;2023-08-07T01:58:47;15.40;99.90
29713;DHT22;16623;53.632;10.016;2023-08-07T02:01:12;15.40;99.90
29713;DHT22;16623;53.632;10.016;2023-08-07T02:03:38;15.40;99.90
29713;DHT22;16623;53.632;10.016;2023-08-07T02:06:03;15.30;99.90
29713;DHT22;16623;53.632;10.016;2023-08-07T02:08:29;15.30;99.90
29713;DHT22;16623;53.632;10.016;2023-08-07T02:10:54;15.30;99.90
29713;DHT22;16623;53.632;10.016;2023-08-07T02:13:20;15.40;99.90
29713;DHT22;16623;53.632;10.016;2023-08-07T02:15:46;15.30;99.90
29713;DHT22;16623;53.632;10.016;2023-08-07T02:18:11;15.50;99.90
29713;DHT22;16623;53.632;10.016;2023-08-07T02:20:36;13.90;99.90
29713;DHT22;16623;53.632;10.016;2023-08-07T02:23:02;15.30;99.90
29713;DHT22;16623;53.632;10.016;2023-08-07T02:25:27;15.30;99.90
29713;DHT22;16623;53.632;10.016;2023-08-07T02:27:53;15.40;99.90
29713;DHT22;16623;53.632;10.016;2023-08-07T02:30:18;15.40;99.90
29713;DHT22;16623;53.632;10.016;2023-08-07T02:32:44;15.40;99.90
29713;DHT22;16623;53.632;10.016;2023-08-07T02:35:10;15.30;99.90
29713;DHT22;16623;53.632;10.016;2023-08-07T02:37:36;15.30;99.90
29713;DHT22;16623;53.632;10.016;2023-08-07T02:40:02;15.30;99.90
29713;DHT22;16623;53.632;10.016;2023-08-07T02:42:28;15.30;99.90
29713;DHT22;16623;53.632;10.016;2023-08-07T02:44:53;15.30;99.90
29713;DHT22;16623;53.632;10.016;2023-08-07T02:47:18;15.30;99.90
29713;DHT22;16623;53.632;10.016;2023-08-07T02:49:44;15.30;99.90
29713;DHT22;16623;53.632;10.016;2023-08-07T02:52:09;15.30;99.90
29713;DHT22;16623;53.632;10.016;2023-08-07T02:54:35;15.30;99.90
29713;DHT22;16623;53.632;10.016;2023-08-07T02:57:00;14.30;99.90
29713;DHT22;16623;53.632;10.016;2023-08-07T02:59:26;15.30;99.90
29713;DHT22;16623;53.632;10.016;2023-08-07T03:01:51;15.40;99.90
29713;DHT22;16623;53.632;10.016;2023-08-07T03:04:17;15.30;99.90
29713;DHT22;16623;53.632;10.016;2023-08-07T03:06:43;15.30;99.90
29713;DHT22;16623;53.632;10.016;2023-08-07T03:09:08;15.30;99.90
29713;DHT22;16623;53.632;10.016;2023-08-07T03:11:33;15.30;99.90
29713;DHT22;16623;53.632;10.016;2023-08-07T03:13:59;15.40;99.90
29713;DHT22;16623;53.632;10.016;2023-08-07T03:16:24;15.30;99.90
29713;DHT22;16623;53.632;10.016;2023-08-07T03:18:50;15.40;99.90
29713;DHT22;16623;53.632;10.016;2023-08-07T03:21:15;15.40;99.90
29713;DHT22;16623;53.632;10.016;2023-08-07T03:23:41;15.30;99.90
29713;DHT22;16623;53.632;10.016;2023-08-07T03:26:11;15.40;99.90
29713;DHT22;16623;53.632;10.016;2023-08-07T03:28:37;15.40;99.90
29713;DHT22;16623;53.632;10.016;2023-08-07T03:31:03;15.40;99.90
29713;DHT22;16623;53.632;10.016;2023-08-07T03:33:28;15.50;99.90
29713;DHT22;16623;53.632;10.016;2023-08-07T03:35:54;15.40;99.90
29713;DHT22;16623;53.632;10.016;2023-08-07T03:38:20;15.50;99.90
29713;DHT22;16623;53.632;10.016;2023-08-07T03:43:11;15.50;99.90
29713;DHT22;16623;53.632;10.016;2023-08-07T03:45:38;15.50;99.90
29713;DHT22;16623;53.632;10.016;2023-08-07T03:48:03;15.50;99.90
29713;DHT22;16623;53.632;10.016;2023-08-07T03:50:29;15.60;99.90
29713;DHT22;16623;53.632;10.016;2023-08-07T03:52:56;15.50;99.90
29713;DHT22;16623;53.632;10.016;2023-08-07T03:55:21;15.50;99.90
29713;DHT22;16623;53.632;10.016;2023-08-07T03:57:47;15.50;99.90
29713;DHT22;16623;53.632;10.016;2023-08-07T04:00:13;15.50;99.90
29713;DHT22;16623;53.632;10.016;2023-08-07T04:02:38;15.50;99.90
29713;DHT22;16623;53.632;10.016;2023-08-07T04:05:04;15.50;99.90
29713;DHT22;16623;53.632;10.016;2023-08-07T04:07:30;15.50;99.90
29713;DHT22;16623;53.632;10.016;2023-08-07T04:09:55;15.20;99.90
29713;DHT22;16623;53.632;10.016;2023-08-07T04:12:20;15.50;99.90
29713;DHT22;16623;53.632;10.016;2023-08-07T04:14:46;15.50;99.90
29713;DHT22;16623;53.632;10.016;2023-08-07T04:17:12;15.50;99.90
29713;DHT22;16623;53.632;10.016;2023-08-07T04:19:37;15.50;99.90
29713;DHT22;16623;53.632;10.016;2023-08-07T04:22:03;15.60;99.90
29713;DHT22;16623;53.632;10.016;2023-08-07T04:24:28;15.60;99.90
29713;DHT22;16623;53.632;10.016;2023-08-07T04:26:54;15.60;99.90
29713;DHT22;16623;53.632;10.016;2023-08-07T04:29:19;15.60;99.90
29713;DHT22;16623;53.632;10.016;2023-08-07T04:31:45;15.50;99.90
29713;DHT22;16623;53.632;10.016;2023-08-07T04:34:10;15.60;99.90
29713;DHT22;16623;53.632;10.016;2023-08-07T04:36:35;15.70;99.90
29713;DHT22;16623;53.632;10.016;2023-08-07T04:39:01;15.60;99.90
29713;DHT22;16623;53.632;10.016;2023-08-07T04:41:27;15.70;99.90
29713;DHT22;16623;53.632;10.016;2023-08-07T04:43:53;15.80;99.90
29713;DHT22;16623;53.632;10.016;2023-08-07T04:46:18;15.70;99.90
29713;DHT22;16623;53.632;10.016;2023-08-07T04:48:43;15.70;99.90
29713;DHT22;16623;53.632;10.016;2023-08-07T04:51:09;15.70;99.90
29713;DHT22;16623;53.632;10.016;2023-08-07T04:53:34;15.70;99.90
29713;DHT22;16623;53.632;10.016;2023-08-07T04:56:00;15.80;99.90
29713;DHT22;16623;53.632;10.016;2023-08-07T04:58:25;15.80;99.90
29713;DHT22;16623;53.632;10.016;2023-08-07T05:00:55;15.80;99.90
29713;DHT22;16623;53.632;10.016;2023-08-07T05:03:21;15.80;99.90
29713;DHT22;16623;53.632;10.016;2023-08-07T05:05:46;15.90;99.90
29713;DHT22;16623;53.632;10.016;2023-08-07T05:08:12;15.90;99.90
29713;DHT22;16623;53.632;10.016;2023-08-07T05:10:37;15.90;99.90
29713;DHT22;16623;53.632;10.016;2023-08-07T05:13:03;16.00;99.90
29713;DHT22;16623;53.632;10.016;2023-08-07T05:15:28;16.00;99.90
29713;DHT22;16623;53.632;10.016;2023-08-07T05:17:55;16.10;99.90
29713;DHT22;16623;53.632;10.016;2023-08-07T05:20:21;16.10;99.90
29713;DHT22;16623;53.632;10.016;2023-08-07T05:22:47;16.10;99.90
29713;DHT22;16623;53.632;10.016;2023-08-07T05:25:13;16.10;99.90
29713;DHT22;16623;53.632;10.016;2023-08-07T05:27:42;16.10;99.90
29713;DHT22;16623;53.632;10.016;2023-08-07T05:30:08;16.10;99.90
29713;DHT22;16623;53.632;10.016;2023-08-07T05:32:34;16.20;99.90
29713;DHT22;16623;53.632;10.016;2023-08-07T05:35:06;16.20;99.90
29713;DHT22;16623;53.632;10.016;2023-08-07T05:37:33;16.20;99.90
29713;DHT22;16623;53.632;10.016;2023-08-07T05:39:59;16.20;99.90
29713;DHT22;16623;53.632;10.016;2023-08-07T05:42:24;16.20;99.90
29713;DHT22;16623;53.632;10.016;2023-08-07T05:44:50;16.20;99.90
29713;DHT22;16623;53.632;10.016;2023-08-07T05:47:15;16.30;99.90
29713;DHT22;16623;53.632;10.016;2023-08-07T05:49:41;16.30;99.90
29713;DHT22;16623;53.632;10.016;2023-08-07T05:52:07;16.20;99.90
29713;DHT22;16623;53.632;10.016;2023-08-07T05:54:32;16.30;99.90
29713;DHT22;16623;53.632;10.016;2023-08-07T05:56:58;16.30;99.90
29713;DHT22;16623;53.632;10.016;2023-08-07T05:59:24;16.50;99.90
29713;DHT22;16623;53.632;10.016;2023-08-07T06:01:49;16.40;99.90
29713;DHT22;16623;53.632;10.016;2023-08-07T06:04:15;16.30;99.90
29713;DHT22;16623;53.632;10.016;2023-08-07T06:06:40;16.40;99.90
29713;DHT22;16623;53.632;10.016;2023-08-07T06:09:08;16.50;99.90
29713;DHT22;16623;53.632;10.016;2023-08-07T06:11:33;16.40;99.90
29713;DHT22;16623;53.632;10.016;2023-08-07T06:13:59;16.40;99.90
29713;DHT22;16623;53.632;10.016;2023-08-07T06:16:24;16.50;99.90
29713;DHT22;16623;53.632;10.016;2023-08-07T06:18:50;16.50;99.90
29713;DHT22;16623;53.632;10.016;2023-08-07T06:21:16;16.50;99.90
29713;DHT22;16623;53.632;10.016;2023-08-07T06:23:41;16.50;99.90
29713;DHT22;16623;53.632;10.016;2023-08-07T06:26:07;16.50;99.90
29713;DHT22;16623;53.632;10.016;2023-08-07T06:28:34;16.50;99.90
29713;DHT22;16623;53.632;10.016;2023-08-07T06:31:02;16.50;99.90
29713;DHT22;16623;53.632;10.016;2023-08-07T06:33:28;16.50;99.90
29713;DHT22;16623;53.632;10.016;2023-08-07T06:35:54;16.60;99.90
29713;DHT22;16623;53.632;10.016;2023-08-07T06:38:19;16.60;99.90
29713;DHT22;16623;53.632;10.016;2023-08-07T06:40:45;16.70;99.90
29713;DHT22;16623;53.632;10.016;2023-08-07T06:43:10;16.70;99.90
29713;DHT22;16623;53.632;10.016;2023-08-07T06:45:36;16.70;99.90
29713;DHT22;16623;53.632;10.016;2023-08-07T06:48:01;16.60;99.90
29713;DHT22;16623;53.632;10.016;2023-08-07T06:50:27;16.60;99.90
29713;DHT22;16623;53.632;10.016;2023-08-07T06:52:52;16.60;99.90
29713;DHT22;16623;53.632;10.016;2023-08-07T06:55:19;16.50;99.90
29713;DHT22;16623;53.632;10.016;2023-08-07T06:57:45;16.50;99.90
29713;DHT22;16623;53.632;10.016;2023-08-07T07:00:11;16.50;99.90
29713;DHT22;16623;53.632;10.016;2023-08-07T07:02:37;16.60;99.90
29713;DHT22;16623;53.632;10.016;2023-08-07T07:05:02;16.60;99.90
29713;DHT22;16623;53.632;10.016;2023-08-07T07:07:30;16.70;99.90
29713;DHT22;16623;53.632;10.016;2023-08-07T07:09:55;16.70;99.90
29713;DHT22;16623;53.632;10.016;2023-08-07T07:12:23;16.70;99.90
29713;DHT22;16623;53.632;10.016;2023-08-07T07:14:48;16.40;99.90
29713;DHT22;16623;53.632;10.016;2023-08-07T07:17:14;16.80;99.90
29713;DHT22;16623;53.632;10.016;2023-08-07T07:19:40;16.80;99.90
29713;DHT22;16623;53.632;10.016;2023-08-07T07:22:05;16.90;99.90
29713;DHT22;16623;53.632;10.016;2023-08-07T07:24:30;16.90;99.90
29713;DHT22;16623;53.632;10.016;2023-08-07T07:26:56;17.00;99.90
29713;DHT22;16623;53.632;10.016;2023-08-07T07:29:21;16.90;99.90
29713;DHT22;16623;53.632;10.016;2023-08-07T07:31:47;16.80;99.90
29713;DHT22;16623;53.632;10.016;2023-08-07T07:34:12;16.60;99.90
29713;DHT22;16623;53.632;10.016;2023-08-07T07:36:38;16.40;99.90
29713;DHT22;16623;53.632;10.016;2023-08-07T07:39:03;16.20;99.90
29713;DHT22;16623;53.632;10.016;2023-08-07T07:41:29;16.20;99.90
29713;DHT22;16623;53.632;10.016;2023-08-07T07:43:54;16.30;99.90
29713;DHT22;16623;53.632;10.016;2023-08-07T07:46:22;16.20;99.90
29713;DHT22;16623;53.632;10.016;2023-08-07T07:48:49;16.40;99.90
29713;DHT22;16623;53.632;10.016;2023-08-07T07:51:14;16.50;99.90
29713;DHT22;16623;53.632;10.016;2023-08-07T07:53:39;16.60;99.90
29713;DHT22;16623;53.632;10.016;2023-08-07T07:56:05;16.70;99.90
29713;DHT22;16623;53.632;10.016;2023-08-07T07:58:31;16.80;99.90
29713;DHT22;16623;53.632;10.016;2023-08-07T08:00:56;16.90;99.90
29713;DHT22;16623;53.632;10.016;2023-08-07T08:03:22;17.10;99.90
29713;DHT22;16623;53.632;10.016;2023-08-07T08:05:50;17.10;99.90
29713;DHT22;16623;53.632;10.016;2023-08-07T08:08:16;17.10;99.90
29713;DHT22;16623;53.632;10.016;2023-08-07T08:10:42;17.10;99.90
29713;DHT22;16623;53.632;10.016;2023-08-07T08:13:09;17.20;99.90
29713;DHT22;16623;53.632;10.016;2023-08-07T08:15:35;17.20;99.90
29713;DHT22;16623;53.632;10.016;2023-08-07T08:18:00;17.00;99.90
29713;DHT22;16623;53.632;10.016;2023-08-07T08:20:26;16.60;99.90
29713;DHT22;16623;53.632;10.016;2023-08-07T08:22:52;16.80;99.90
29713;DHT22;16623;53.632;10.016;2023-08-07T08:25:17;16.70;99.90
29713;DHT22;16623;53.632;10.016;2023-08-07T08:27:43;16.80;99.90
29713;DHT22;16623;53.632;10.016;2023-08-07T08:30:09;16.80;99.90
29713;DHT22;16623;53.632;10.016;2023-08-07T08:32:35;16.90;99.90
29713;DHT22;16623;53.632;10.016;2023-08-07T08:35:00;16.90;99.90
29713;DHT22;16623;53.632;10.016;2023-08-07T08:37:26;16.90;99.90
29713;DHT22;16623;53.632;10.016;2023-08-07T08:39:51;16.80;99.90
29713;DHT22;16623;53.632;10.016;2023-08-07T08:42:17;16.90;99.90
29713;DHT22;16623;53.632;10.016;2023-08-07T08:44:51;16.80;99.90
29713;DHT22;16623;53.632;10.016;2023-08-07T08:47:17;16.80;99.90
29713;DHT22;16623;53.632;10.016;2023-08-07T08:49:47;16.80;99.90
29713;DHT22;16623;53.632;10.016;2023-08-07T08:52:14;16.60;99.90
29713;DHT22;16623;53.632;10.016;2023-08-07T08:54:41;16.40;99.90
29713;DHT22;16623;53.632;10.016;2023-08-07T08:57:07;16.10;99.90
29713;DHT22;16623;53.632;10.016;2023-08-07T08:59:33;15.90;99.90
29713;DHT22;16623;53.632;10.016;2023-08-07T09:01:59;15.90;99.90
29713;DHT22;16623;53.632;10.016;2023-08-07T09:04:25;15.80;99.90
29713;DHT22;16623;53.632;10.016;2023-08-07T09:06:50;15.70;99.90
29713;DHT22;16623;53.632;10.016;2023-08-07T09:09:17;15.60;99.90
29713;DHT22;16623;53.632;10.016;2023-08-07T09:11:45;15.50;99.90
29713;DHT22;16623;53.632;10.016;2023-08-07T09:14:15;15.40;99.90
29713;DHT22;16623;53.632;10.016;2023-08-07T09:16:41;15.60;99.90
29713;DHT22;16623;53.632;10.016;2023-08-07T09:19:06;15.80;99.90
29713;DHT22;16623;53.632;10.016;2023-08-07T09:21:33;16.10;99.90
29713;DHT22;16623;53.632;10.016;2023-08-07T09:23:58;16.30;99.90
29713;DHT22;16623;53.632;10.016;2023-08-07T09:26:24;16.60;99.90
29713;DHT22;16623;53.632;10.016;2023-08-07T09:28:53;16.80;99.90
29713;DHT22;16623;53.632;10.016;2023-08-07T09:31:20;17.00;99.90
29713;DHT22;16623;53.632;10.016;2023-08-07T09:33:49;17.20;99.90
29713;DHT22;16623;53.632;10.016;2023-08-07T09:36:15;17.20;99.90
29713;DHT22;16623;53.632;10.016;2023-08-07T09:38:40;17.90;99.90
29713;DHT22;16623;53.632;10.016;2023-08-07T09:41:06;17.20;99.90
29713;DHT22;16623;53.632;10.016;2023-08-07T09:43:35;17.20;99.90
29713;DHT22;16623;53.632;10.016;2023-08-07T09:46:03;17.30;99.90
29713;DHT22;16623;53.632;10.016;2023-08-07T09:48:28;17.40;99.90
29713;DHT22;16623;53.632;10.016;2023-08-07T09:50:54;17.40;99.90
29713;DHT22;16623;53.632;10.016;2023-08-07T09:53:26;17.60;99.90
29713;DHT22;16623;53.632;10.016;2023-08-07T09:55:54;17.80;99.90
29713;DHT22;16623;53.632;10.016;2023-08-07T09:58:20;18.00;99.90
29713;DHT22;16623;53.632;10.016;2023-08-07T10:00:49;18.10;99.90
29713;DHT22;16623;53.632;10.016;2023-08-07T10:03:15;18.30;99.90
29713;DHT22;16623;53.632;10.016;2023-08-07T10:05:43;18.40;99.90
29713;DHT22;16623;53.632;10.016;2023-08-07T10:08:10;18.40;99.90
29713;DHT22;16623;53.632;10.016;2023-08-07T10:10:37;18.50;99.90
29713;DHT22;16623;53.632;10.016;2023-08-07T10:13:03;17.60;99.90
29713;DHT22;16623;53.632;10.016;2023-08-07T10:15:29;18.60;99.90
29713;DHT22;16623;53.632;10.016;2023-08-07T10:17:56;18.70;99.90
29713;DHT22;16623;53.632;10.016;2023-08-07T10:20:22;18.80;99.90
29713;DHT22;16623;53.632;10.016;2023-08-07T10:22:50;19.00;99.90
29713;DHT22;16623;53.632;10.016;2023-08-07T10:25:20;19.10;99.90
29713;DHT22;16623;53.632;10.016;2023-08-07T10:27:48;19.10;99.90
29713;DHT22;16623;53.632;10.016;2023-08-07T10:30:16;19.10;99.90
29713;DHT22;16623;53.632;10.016;2023-08-07T10:32:44;19.10;99.90
29713;DHT22;16623;53.632;10.016;2023-08-07T10:35:28;18.90;99.90
29713;DHT22;16623;53.632;10.016;2023-08-07T10:37:54;18.80;99.90
29713;DHT22;16623;53.632;10.016;2023-08-07T10:40:20;18.70;99.90
29713;DHT22;16623;53.632;10.016;2023-08-07T10:43:12;19.10;99.90
29713;DHT22;16623;53.632;10.016;2023-08-07T10:45:38;19.50;99.90
29713;DHT22;16623;53.632;10.016;2023-08-07T10:48:12;19.80;99.90
29713;DHT22;16623;53.632;10.016;2023-08-07T10:53:28;19.30;99.90
29713;DHT22;16623;53.632;10.016;2023-08-07T10:55:53;19.20;99.90
29713;DHT22;16623;53.632;10.016;2023-08-07T10:58:28;19.00;99.90
29713;DHT22;16623;53.632;10.016;2023-08-07T11:01:16;18.90;99.90
29713;DHT22;16623;53.632;10.016;2023-08-07T11:03:45;18.70;99.90
29713;DHT22;16623;53.632;10.016;2023-08-07T11:06:13;19.20;99.90
29713;DHT22;16623;53.632;10.016;2023-08-07T11:08:39;18.50;99.90
29713;DHT22;16623;53.632;10.016;2023-08-07T11:11:05;18.50;99.90
29713;DHT22;16623;53.632;10.016;2023-08-07T11:13:32;18.60;99.90
29713;DHT22;16623;53.632;10.016;2023-08-07T11:15:58;18.60;99.90
29713;DHT22;16623;53.632;10.016;2023-08-07T11:18:25;18.60;99.90
29713;DHT22;16623;53.632;10.016;2023-08-07T11:20:52;18.50;99.90
29713;DHT22;16623;53.632;10.016;2023-08-07T11:23:23;18.40;99.90
29713;DHT22;16623;53.632;10.016;2023-08-07T11:25:49;18.20;99.90
29713;DHT22;16623;53.632;10.016;2023-08-07T11:28:18;18.20;99.90
29713;DHT22;16623;53.632;10.016;2023-08-07T11:30:44;18.10;99.90
29713;DHT22;16623;53.632;10.016;2023-08-07T11:33:11;18.20;99.90
29713;DHT22;16623;53.632;10.016;2023-08-07T11:35:42;18.30;99.90
29713;DHT22;16623;53.632;10.016;2023-08-07T11:38:07;18.40;99.90
29713;DHT22;16623;53.632;10.016;2023-08-07T11:40:34;18.60;99.90
29713;DHT22;16623;53.632;10.016;2023-08-07T11:42:59;18.70;99.90
29713;DHT22;16623;53.632;10.016;2023-08-07T11:45:25;18.50;99.90
29713;DHT22;16623;53.632;10.016;2023-08-07T11:47:51;18.40;99.90
29713;DHT22;16623;53.632;10.016;2023-08-07T11:50:16;18.30;99.90
29713;DHT22;16623;53.632;10.016;2023-08-07T11:52:42;18.30;99.90
29713;DHT22;16623;53.632;10.016;2023-08-07T11:55:08;18.40;99.90
29713;DHT22;16623;53.632;10.016;2023-08-07T11:57:37;18.40;99.90
29713;DHT22;16623;53.632;10.016;2023-08-07T12:00:06;18.50;99.90
29713;DHT22;16623;53.632;10.016;2023-08-07T12:02:35;18.40;99.90
29713;DHT22;16623;53.632;10.016;2023-08-07T12:05:00;18.40;99.90
29713;DHT22;16623;53.632;10.016;2023-08-07T12:07:27;18.40;99.90
29713;DHT22;16623;53.632;10.016;2023-08-07T12:09:53;18.30;99.90
29713;DHT22;16623;53.632;10.016;2023-08-07T12:12:20;18.20;99.90
29713;DHT22;16623;53.632;10.016;2023-08-07T12:14:45;17.80;99.90
29713;DHT22;16623;53.632;10.016;2023-08-07T12:17:11;17.60;99.90
29713;DHT22;16623;53.632;10.016;2023-08-07T12:19:38;17.50;99.90
29713;DHT22;16623;53.632;10.016;2023-08-07T12:22:07;17.40;99.90
29713;DHT22;16623;53.632;10.016;2023-08-07T12:24:35;17.60;99.90
29713;DHT22;16623;53.632;10.016;2023-08-07T12:27:01;17.70;99.90
29713;DHT22;16623;53.632;10.016;2023-08-07T12:29:27;17.80;99.90
29713;DHT22;16623;53.632;10.016;2023-08-07T12:31:54;17.70;99.90
29713;DHT22;16623;53.632;10.016;2023-08-07T12:34:20;17.80;99.90
29713;DHT22;16623;53.632;10.016;2023-08-07T12:36:46;17.80;99.90
29713;DHT22;16623;53.632;10.016;2023-08-07T12:39:12;17.80;99.90
29713;DHT22;16623;53.632;10.016;2023-08-07T12:41:37;17.70;99.90
29713;DHT22;16623;53.632;10.016;2023-08-07T12:44:03;17.60;99.90
29713;DHT22;16623;53.632;10.016;2023-08-07T12:46:29;17.50;99.90
29713;DHT22;16623;53.632;10.016;2023-08-07T12:48:54;17.60;99.90
29713;DHT22;16623;53.632;10.016;2023-08-07T12:51:20;17.80;99.90
29713;DHT22;16623;53.632;10.016;2023-08-07T12:53:45;17.90;99.90
29713;DHT22;16623;53.632;10.016;2023-08-07T12:56:12;18.00;99.90
29713;DHT22;16623;53.632;10.016;2023-08-07T12:58:38;18.00;99.90
29713;DHT22;16623;53.632;10.016;2023-08-07T13:01:04;18.10;99.90
29713;DHT22;16623;53.632;10.016;2023-08-07T13:03:30;18.20;99.90
29713;DHT22;16623;53.632;10.016;2023-08-07T13:05:55;18.00;99.90
29713;DHT22;16623;53.632;10.016;2023-08-07T13:08:20;18.00;99.90
29713;DHT22;16623;53.632;10.016;2023-08-07T13:10:46;17.60;99.90
29713;DHT22;16623;53.632;10.016;2023-08-07T13:13:11;18.10;99.90
29713;DHT22;16623;53.632;10.016;2023-08-07T13:15:37;18.10;99.90
29713;DHT22;16623;53.632;10.016;2023-08-07T13:18:02;18.20;99.90
29713;DHT22;16623;53.632;10.016;2023-08-07T13:20:28;18.00;99.90
29713;DHT22;16623;53.632;10.016;2023-08-07T13:22:58;18.40;99.90
29713;DHT22;16623;53.632;10.016;2023-08-07T13:25:24;18.30;99.90
29713;DHT22;16623;53.632;10.016;2023-08-07T13:27:49;18.40;99.90
29713;DHT22;16623;53.632;10.016;2023-08-07T13:30:15;18.60;99.90
29713;DHT22;16623;53.632;10.016;2023-08-07T13:32:41;18.70;99.90
29713;DHT22;16623;53.632;10.016;2023-08-07T13:35:06;18.70;99.90
29713;DHT22;16623;53.632;10.016;2023-08-07T13:37:32;18.70;99.90
29713;DHT22;16623;53.632;10.016;2023-08-07T13:39:58;18.60;99.90
29713;DHT22;16623;53.632;10.016;2023-08-07T13:42:25;18.10;99.90
29713;DHT22;16623;53.632;10.016;2023-08-07T13:44:51;18.40;99.90
29713;DHT22;16623;53.632;10.016;2023-08-07T13:47:17;18.40;99.90
29713;DHT22;16623;53.632;10.016;2023-08-07T13:49:43;18.20;99.90
29713;DHT22;16623;53.632;10.016;2023-08-07T13:52:08;18.20;99.90
29713;DHT22;16623;53.632;10.016;2023-08-07T13:54:34;18.10;99.90
29713;DHT22;16623;53.632;10.016;2023-08-07T13:57:00;18.10;99.90
29713;DHT22;16623;53.632;10.016;2023-08-07T13:59:25;18.10;99.90
29713;DHT22;16623;53.632;10.016;2023-08-07T14:01:51;18.00;99.90
29713;DHT22;16623;53.632;10.016;2023-08-07T14:04:17;17.80;99.90
29713;DHT22;16623;53.632;10.016;2023-08-07T14:06:42;17.80;99.90
29713;DHT22;16623;53.632;10.016;2023-08-07T14:09:09;17.70;99.90
29713;DHT22;16623;53.632;10.016;2023-08-07T14:11:36;17.70;99.90
29713;DHT22;16623;53.632;10.016;2023-08-07T14:14:02;17.70;99.90
29713;DHT22;16623;53.632;10.016;2023-08-07T14:16:27;17.70;99.90
29713;DHT22;16623;53.632;10.016;2023-08-07T14:18:52;17.70;99.90
29713;DHT22;16623;53.632;10.016;2023-08-07T14:21:18;17.90;99.90
29713;DHT22;16623;53.632;10.016;2023-08-07T14:23:44;17.90;99.90
29713;DHT22;16623;53.632;10.016;2023-08-07T14:26:11;18.10;99.90
29713;DHT22;16623;53.632;10.016;2023-08-07T14:28:37;18.20;99.90
29713;DHT22;16623;53.632;10.016;2023-08-07T14:31:06;18.50;99.90
29713;DHT22;16623;53.632;10.016;2023-08-07T14:33:32;18.70;99.90
29713;DHT22;16623;53.632;10.016;2023-08-07T14:35:57;18.70;99.90
29713;DHT22;16623;53.632;10.016;2023-08-07T14:38:23;18.70;99.90
29713;DHT22;16623;53.632;10.016;2023-08-07T14:40:48;18.60;98.40
29713;DHT22;16623;53.632;10.016;2023-08-07T14:43:14;18.50;98.80
29713;DHT22;16623;53.632;10.016;2023-08-07T14:45:40;18.50;99.50
29713;DHT22;16623;53.632;10.016;2023-08-07T14:48:05;18.70;99.60
29713;DHT22;16623;53.632;10.016;2023-08-07T14:50:32;18.70;99.50
29713;DHT22;16623;53.632;10.016;2023-08-07T14:52:57;18.50;99.20
29713;DHT22;16623;53.632;10.016;2023-08-07T14:55:23;18.30;99.90
29713;DHT22;16623;53.632;10.016;2023-08-07T14:57:48;18.10;99.90
29713;DHT22;16623;53.632;10.016;2023-08-07T15:00:14;17.80;99.90
29713;DHT22;16623;53.632;10.016;2023-08-07T15:02:41;17.50;99.90
29713;DHT22;16623;53.632;10.016;2023-08-07T15:05:07;17.30;99.90
29713;DHT22;16623;53.632;10.016;2023-08-07T15:07:32;17.20;99.90
29713;DHT22;16623;53.632;10.016;2023-08-07T15:09:59;16.90;99.90
29713;DHT22;16623;53.632;10.016;2023-08-07T15:12:25;16.80;99.90
29713;DHT22;16623;53.632;10.016;2023-08-07T15:14:50;16.80;99.90
29713;DHT22;16623;53.632;10.016;2023-08-07T15:17:16;16.60;99.90
29713;DHT22;16623;53.632;10.016;2023-08-07T15:19:41;16.30;99.90